sensor_id;sensor_type;location;lat;lon;timestamp;P1;durP1;ratioP1;P2;durP2;ratioP2
22650;SDS011;11492;42.646;23.400;2023-07-29T00:00:42;4.07;;;2.42;;
22650;SDS011;11492;42.646;23.400;2023-07-29T00:03:08;3.15;;;2.15;;
22650;SDS011;11492;42.646;23.400;2023-07-29T00:05:34;5.60;;;2.47;;
22650;SDS011;11492;42.646;23.400;2023-07-29T00:07:59;6.03;;;2.50;;
22650;SDS011;11492;42.646;23.400;2023-07-29T00:10:25;5.07;;;2.83;;
22650;SDS011;11492;42.646;23.400;2023-07-29T00:12:51;4.78;;;2.50;;
22650;SDS011;11492;42.646;23.400;2023-07-29T00:15:16;6.15;;;2.60;;
22650;SDS011;11492;42.646;23.400;2023-07-29T00:17:42;4.22;;;2.60;;
22650;SDS011;11492;42.646;23.400;2023-07-29T00:20:07;4.05;;;2.67;;
22650;SDS011;11492;42.646;23.400;2023-07-29T00:22:33;3.03;;;2.30;;
22650;SDS011;11492;42.646;23.400;2023-07-29T00:24:58;4.82;;;2.55;;
22650;SDS011;11492;42.646;23.400;2023-07-29T00:27:24;4.25;;;2.47;;
22650;SDS011;11492;42.646;23.400;2023-07-29T00:29:50;4.53;;;2.70;;
22650;SDS011;11492;42.646;23.400;2023-07-29T00:32:15;4.45;;;2.40;;
22650;SDS011;11492;42.646;23.400;2023-07-29T00:34:40;3.33;;;2.35;;
22650;SDS011;11492;42.646;23.400;2023-07-29T00:37:06;4.10;;;2.55;;
22650;SDS011;11492;42.646;23.400;2023-07-29T00:39:31;4.53;;;2.58;;
22650;SDS011;11492;42.646;23.400;2023-07-29T00:41:57;4.03;;;2.47;;
22650;SDS011;11492;42.646;23.400;2023-07-29T00:44:23;4.53;;;2.67;;
22650;SDS011;11492;42.646;23.400;2023-07-29T00:46:50;6.53;;;2.80;;
22650;SDS011;11492;42.646;23.400;2023-07-29T00:49:17;3.67;;;2.50;;
22650;SDS011;11492;42.646;23.400;2023-07-29T00:51:43;5.90;;;2.58;;
22650;SDS011;11492;42.646;23.400;2023-07-29T00:54:08;4.47;;;2.65;;
22650;SDS011;11492;42.646;23.400;2023-07-29T00:56:34;3.67;;;2.60;;
22650;SDS011;11492;42.646;23.400;2023-07-29T00:59:00;6.32;;;2.58;;
22650;SDS011;11492;42.646;23.400;2023-07-29T01:01:27;4.50;;;2.67;;
22650;SDS011;11492;42.646;23.400;2023-07-29T01:03:53;6.30;;;2.80;;
22650;SDS011;11492;42.646;23.400;2023-07-29T01:08:56;3.90;;;2.35;;
22650;SDS011;11492;42.646;23.400;2023-07-29T01:14:38;3.00;;;2.50;;
22650;SDS011;11492;42.646;23.400;2023-07-29T01:17:13;4.57;;;2.45;;
22650;SDS011;11492;42.646;23.400;2023-07-29T01:22:26;4.80;;;2.60;;
22650;SDS011;11492;42.646;23.400;2023-07-29T01:24:52;2.92;;;2.45;;
22650;SDS011;11492;42.646;23.400;2023-07-29T01:27:18;3.47;;;2.33;;
22650;SDS011;11492;42.646;23.400;2023-07-29T01:29:43;3.53;;;2.70;;
22650;SDS011;11492;42.646;23.400;2023-07-29T01:32:14;3.17;;;2.17;;
22650;SDS011;11492;42.646;23.400;2023-07-29T01:34:56;3.70;;;2.55;;
22650;SDS011;11492;42.646;23.400;2023-07-29T01:37:38;5.38;;;2.65;;
22650;SDS011;11492;42.646;23.400;2023-07-29T01:40:05;5.63;;;2.80;;
22650;SDS011;11492;42.646;23.400;2023-07-29T01:42:33;7.20;;;2.72;;
22650;SDS011;11492;42.646;23.400;2023-07-29T01:44:59;5.40;;;2.40;;
22650;SDS011;11492;42.646;23.400;2023-07-29T01:47:25;5.38;;;2.70;;
22650;SDS011;11492;42.646;23.400;2023-07-29T01:49:50;4.13;;;2.63;;
22650;SDS011;11492;42.646;23.400;2023-07-29T01:52:16;14.27;;;2.45;;
22650;SDS011;11492;42.646;23.400;2023-07-29T01:54:41;3.30;;;2.60;;
22650;SDS011;11492;42.646;23.400;2023-07-29T01:57:07;2.70;;;2.45;;
22650;SDS011;11492;42.646;23.400;2023-07-29T01:59:32;3.33;;;2.60;;
22650;SDS011;11492;42.646;23.400;2023-07-29T02:01:58;5.40;;;3.00;;
22650;SDS011;11492;42.646;23.400;2023-07-29T02:04:23;4.75;;;2.63;;
22650;SDS011;11492;42.646;23.400;2023-07-29T02:06:48;5.18;;;2.50;;
22650;SDS011;11492;42.646;23.400;2023-07-29T02:09:14;6.07;;;3.10;;
22650;SDS011;11492;42.646;23.400;2023-07-29T02:11:40;4.50;;;2.50;;
22650;SDS011;11492;42.646;23.400;2023-07-29T02:14:06;3.70;;;2.50;;
22650;SDS011;11492;42.646;23.400;2023-07-29T02:16:31;4.65;;;2.42;;
22650;SDS011;11492;42.646;23.400;2023-07-29T02:18:58;6.90;;;2.90;;
22650;SDS011;11492;42.646;23.400;2023-07-29T02:21:23;5.95;;;2.90;;
22650;SDS011;11492;42.646;23.400;2023-07-29T02:23:48;4.80;;;2.53;;
22650;SDS011;11492;42.646;23.400;2023-07-29T02:26:14;3.88;;;2.85;;
22650;SDS011;11492;42.646;23.400;2023-07-29T02:28:41;5.15;;;2.65;;
22650;SDS011;11492;42.646;23.400;2023-07-29T02:31:14;5.97;;;2.85;;
22650;SDS011;11492;42.646;23.400;2023-07-29T02:33:45;6.05;;;2.80;;
22650;SDS011;11492;42.646;23.400;2023-07-29T02:36:11;3.45;;;2.75;;
22650;SDS011;11492;42.646;23.400;2023-07-29T02:38:38;4.22;;;2.78;;
22650;SDS011;11492;42.646;23.400;2023-07-29T02:41:04;4.30;;;2.70;;
22650;SDS011;11492;42.646;23.400;2023-07-29T02:43:29;4.45;;;2.88;;
22650;SDS011;11492;42.646;23.400;2023-07-29T02:45:54;5.18;;;2.72;;
22650;SDS011;11492;42.646;23.400;2023-07-29T02:48:20;5.43;;;3.00;;
22650;SDS011;11492;42.646;23.400;2023-07-29T02:50:45;4.68;;;2.85;;
22650;SDS011;11492;42.646;23.400;2023-07-29T02:53:11;5.28;;;2.88;;
22650;SDS011;11492;42.646;23.400;2023-07-29T02:55:39;5.82;;;2.85;;
22650;SDS011;11492;42.646;23.400;2023-07-29T02:58:05;6.95;;;3.20;;
22650;SDS011;11492;42.646;23.400;2023-07-29T03:00:31;9.50;;;2.92;;
22650;SDS011;11492;42.646;23.400;2023-07-29T03:02:58;5.20;;;2.90;;
22650;SDS011;11492;42.646;23.400;2023-07-29T03:05:23;6.85;;;3.10;;
22650;SDS011;11492;42.646;23.400;2023-07-29T03:07:49;5.97;;;3.40;;
22650;SDS011;11492;42.646;23.400;2023-07-29T03:10:14;12.52;;;3.33;;
22650;SDS011;11492;42.646;23.400;2023-07-29T03:12:40;3.85;;;3.00;;
22650;SDS011;11492;42.646;23.400;2023-07-29T03:15:05;7.70;;;2.85;;
22650;SDS011;11492;42.646;23.400;2023-07-29T03:17:31;12.23;;;3.05;;
22650;SDS011;11492;42.646;23.400;2023-07-29T03:19:57;6.20;;;2.90;;
22650;SDS011;11492;42.646;23.400;2023-07-29T03:22:22;5.75;;;3.20;;
22650;SDS011;11492;42.646;23.400;2023-07-29T03:24:48;8.73;;;3.10;;
22650;SDS011;11492;42.646;23.400;2023-07-29T03:27:13;4.70;;;3.03;;
22650;SDS011;11492;42.646;23.400;2023-07-29T03:29:40;5.85;;;2.88;;
22650;SDS011;11492;42.646;23.400;2023-07-29T03:32:06;6.05;;;3.30;;
22650;SDS011;11492;42.646;23.400;2023-07-29T03:34:32;9.93;;;3.33;;
22650;SDS011;11492;42.646;23.400;2023-07-29T03:36:58;8.32;;;3.00;;
22650;SDS011;11492;42.646;23.400;2023-07-29T03:39:26;9.50;;;3.17;;
22650;SDS011;11492;42.646;23.400;2023-07-29T03:41:51;6.75;;;3.03;;
22650;SDS011;11492;42.646;23.400;2023-07-29T03:44:17;6.93;;;2.97;;
22650;SDS011;11492;42.646;23.400;2023-07-29T03:46:43;9.38;;;2.90;;
22650;SDS011;11492;42.646;23.400;2023-07-29T03:49:09;9.68;;;3.28;;
22650;SDS011;11492;42.646;23.400;2023-07-29T03:51:34;8.93;;;3.05;;
22650;SDS011;11492;42.646;23.400;2023-07-29T03:54:00;7.80;;;3.15;;
22650;SDS011;11492;42.646;23.400;2023-07-29T03:56:25;7.28;;;3.10;;
22650;SDS011;11492;42.646;23.400;2023-07-29T03:58:51;8.05;;;3.25;;
22650;SDS011;11492;42.646;23.400;2023-07-29T04:01:18;6.40;;;3.33;;
22650;SDS011;11492;42.646;23.400;2023-07-29T04:03:44;8.98;;;3.83;;
22650;SDS011;11492;42.646;23.400;2023-07-29T04:06:11;9.27;;;4.65;;
22650;SDS011;11492;42.646;23.400;2023-07-29T04:08:36;8.98;;;4.80;;
22650;SDS011;11492;42.646;23.400;2023-07-29T04:11:02;11.70;;;4.88;;
22650;SDS011;11492;42.646;23.400;2023-07-29T04:13:27;8.73;;;5.00;;
22650;SDS011;11492;42.646;23.400;2023-07-29T04:15:53;17.52;;;5.68;;
22650;SDS011;11492;42.646;23.400;2023-07-29T04:18:18;12.07;;;5.35;;
22650;SDS011;11492;42.646;23.400;2023-07-29T04:20:44;6.70;;;4.70;;
22650;SDS011;11492;42.646;23.400;2023-07-29T04:23:09;13.75;;;5.45;;
22650;SDS011;11492;42.646;23.400;2023-07-29T04:25:35;13.60;;;4.68;;
22650;SDS011;11492;42.646;23.400;2023-07-29T04:28:00;10.43;;;4.80;;
22650;SDS011;11492;42.646;23.400;2023-07-29T04:30:28;11.52;;;5.70;;
22650;SDS011;11492;42.646;23.400;2023-07-29T04:32:53;10.80;;;4.60;;
22650;SDS011;11492;42.646;23.400;2023-07-29T04:35:19;11.35;;;4.35;;
22650;SDS011;11492;42.646;23.400;2023-07-29T04:37:44;12.13;;;5.18;;
22650;SDS011;11492;42.646;23.400;2023-07-29T04:40:10;15.15;;;4.88;;
22650;SDS011;11492;42.646;23.400;2023-07-29T04:42:36;11.85;;;5.30;;
22650;SDS011;11492;42.646;23.400;2023-07-29T04:45:01;16.33;;;4.88;;
22650;SDS011;11492;42.646;23.400;2023-07-29T04:47:27;15.80;;;5.25;;
22650;SDS011;11492;42.646;23.400;2023-07-29T04:49:53;11.48;;;5.50;;
22650;SDS011;11492;42.646;23.400;2023-07-29T04:52:18;8.55;;;4.57;;
22650;SDS011;11492;42.646;23.400;2023-07-29T04:54:44;11.43;;;4.40;;
22650;SDS011;11492;42.646;23.400;2023-07-29T04:57:10;14.52;;;5.18;;
22650;SDS011;11492;42.646;23.400;2023-07-29T04:59:35;16.15;;;4.47;;
22650;SDS011;11492;42.646;23.400;2023-07-29T05:02:00;11.23;;;3.60;;
22650;SDS011;11492;42.646;23.400;2023-07-29T05:04:26;7.53;;;3.60;;
22650;SDS011;11492;42.646;23.400;2023-07-29T05:06:51;9.82;;;3.58;;
22650;SDS011;11492;42.646;23.400;2023-07-29T05:09:17;5.32;;;3.20;;
22650;SDS011;11492;42.646;23.400;2023-07-29T05:11:44;11.52;;;3.72;;
22650;SDS011;11492;42.646;23.400;2023-07-29T05:14:11;6.75;;;3.15;;
22650;SDS011;11492;42.646;23.400;2023-07-29T05:16:37;8.65;;;3.40;;
22650;SDS011;11492;42.646;23.400;2023-07-29T05:19:03;6.40;;;3.33;;
22650;SDS011;11492;42.646;23.400;2023-07-29T05:21:29;9.35;;;3.33;;
22650;SDS011;11492;42.646;23.400;2023-07-29T05:23:54;11.77;;;3.70;;
22650;SDS011;11492;42.646;23.400;2023-07-29T05:26:20;8.98;;;3.20;;
22650;SDS011;11492;42.646;23.400;2023-07-29T05:28:45;14.05;;;3.50;;
22650;SDS011;11492;42.646;23.400;2023-07-29T05:31:11;8.23;;;4.40;;
22650;SDS011;11492;42.646;23.400;2023-07-29T05:33:36;9.65;;;4.93;;
22650;SDS011;11492;42.646;23.400;2023-07-29T05:36:02;10.82;;;4.32;;
22650;SDS011;11492;42.646;23.400;2023-07-29T05:38:27;11.52;;;3.88;;
22650;SDS011;11492;42.646;23.400;2023-07-29T05:40:52;9.95;;;4.18;;
22650;SDS011;11492;42.646;23.400;2023-07-29T05:43:18;9.65;;;4.15;;
22650;SDS011;11492;42.646;23.400;2023-07-29T05:45:43;13.43;;;4.53;;
22650;SDS011;11492;42.646;23.400;2023-07-29T05:48:09;9.07;;;3.95;;
22650;SDS011;11492;42.646;23.400;2023-07-29T05:50:34;13.43;;;4.35;;
22650;SDS011;11492;42.646;23.400;2023-07-29T05:52:59;9.90;;;3.88;;
22650;SDS011;11492;42.646;23.400;2023-07-29T05:55:25;12.32;;;3.47;;
22650;SDS011;11492;42.646;23.400;2023-07-29T05:57:50;9.65;;;3.95;;
22650;SDS011;11492;42.646;23.400;2023-07-29T06:00:16;9.82;;;3.75;;
22650;SDS011;11492;42.646;23.400;2023-07-29T06:02:41;10.80;;;3.75;;
22650;SDS011;11492;42.646;23.400;2023-07-29T06:05:07;8.98;;;4.30;;
22650;SDS011;11492;42.646;23.400;2023-07-29T06:07:32;21.63;;;4.13;;
22650;SDS011;11492;42.646;23.400;2023-07-29T06:09:59;12.00;;;3.88;;
22650;SDS011;11492;42.646;23.400;2023-07-29T06:12:25;8.73;;;4.10;;
22650;SDS011;11492;42.646;23.400;2023-07-29T06:14:50;13.50;;;4.00;;
22650;SDS011;11492;42.646;23.400;2023-07-29T06:17:16;14.35;;;3.83;;
22650;SDS011;11492;42.646;23.400;2023-07-29T06:19:41;10.48;;;3.83;;
22650;SDS011;11492;42.646;23.400;2023-07-29T06:22:07;7.78;;;3.70;;
22650;SDS011;11492;42.646;23.400;2023-07-29T06:24:32;11.75;;;3.58;;
22650;SDS011;11492;42.646;23.400;2023-07-29T06:26:58;11.52;;;3.83;;
22650;SDS011;11492;42.646;23.400;2023-07-29T06:29:23;10.20;;;4.53;;
22650;SDS011;11492;42.646;23.400;2023-07-29T06:31:49;11.50;;;4.18;;
22650;SDS011;11492;42.646;23.400;2023-07-29T06:34:16;13.93;;;4.00;;
22650;SDS011;11492;42.646;23.400;2023-07-29T06:36:42;12.07;;;4.07;;
22650;SDS011;11492;42.646;23.400;2023-07-29T06:39:07;15.15;;;4.50;;
22650;SDS011;11492;42.646;23.400;2023-07-29T06:41:33;11.75;;;4.25;;
22650;SDS011;11492;42.646;23.400;2023-07-29T06:43:58;12.48;;;3.90;;
22650;SDS011;11492;42.646;23.400;2023-07-29T06:46:24;9.68;;;3.50;;
22650;SDS011;11492;42.646;23.400;2023-07-29T06:48:49;6.65;;;3.67;;
22650;SDS011;11492;42.646;23.400;2023-07-29T06:51:15;11.68;;;3.92;;
22650;SDS011;11492;42.646;23.400;2023-07-29T06:53:40;11.98;;;3.55;;
22650;SDS011;11492;42.646;23.400;2023-07-29T06:56:05;17.13;;;4.40;;
22650;SDS011;11492;42.646;23.400;2023-07-29T06:58:31;16.95;;;4.40;;
22650;SDS011;11492;42.646;23.400;2023-07-29T07:00:56;9.93;;;3.75;;
22650;SDS011;11492;42.646;23.400;2023-07-29T07:03:22;14.38;;;4.00;;
22650;SDS011;11492;42.646;23.400;2023-07-29T07:05:47;11.65;;;4.65;;
22650;SDS011;11492;42.646;23.400;2023-07-29T07:08:13;11.48;;;4.00;;
22650;SDS011;11492;42.646;23.400;2023-07-29T07:10:38;13.18;;;4.03;;
22650;SDS011;11492;42.646;23.400;2023-07-29T07:13:03;17.73;;;4.80;;
22650;SDS011;11492;42.646;23.400;2023-07-29T07:15:29;8.35;;;3.72;;
22650;SDS011;11492;42.646;23.400;2023-07-29T07:17:54;8.85;;;3.78;;
22650;SDS011;11492;42.646;23.400;2023-07-29T07:20:20;10.18;;;3.72;;
22650;SDS011;11492;42.646;23.400;2023-07-29T07:22:45;9.50;;;3.75;;
22650;SDS011;11492;42.646;23.400;2023-07-29T07:25:10;13.25;;;3.75;;
22650;SDS011;11492;42.646;23.400;2023-07-29T07:27:36;12.80;;;4.25;;
22650;SDS011;11492;42.646;23.400;2023-07-29T07:30:02;17.05;;;3.90;;
22650;SDS011;11492;42.646;23.400;2023-07-29T07:32:28;8.95;;;3.72;;
22650;SDS011;11492;42.646;23.400;2023-07-29T07:34:53;11.65;;;3.58;;
22650;SDS011;11492;42.646;23.400;2023-07-29T07:37:18;7.93;;;3.65;;
22650;SDS011;11492;42.646;23.400;2023-07-29T07:39:44;13.48;;;3.85;;
22650;SDS011;11492;42.646;23.400;2023-07-29T07:42:09;15.48;;;3.80;;
22650;SDS011;11492;42.646;23.400;2023-07-29T07:44:35;9.05;;;3.80;;
22650;SDS011;11492;42.646;23.400;2023-07-29T07:47:00;12.70;;;3.63;;
22650;SDS011;11492;42.646;23.400;2023-07-29T07:49:25;12.93;;;3.45;;
22650;SDS011;11492;42.646;23.400;2023-07-29T07:51:51;10.45;;;3.72;;
22650;SDS011;11492;42.646;23.400;2023-07-29T07:54:16;12.05;;;3.65;;
22650;SDS011;11492;42.646;23.400;2023-07-29T07:56:42;7.95;;;3.63;;
22650;SDS011;11492;42.646;23.400;2023-07-29T07:59:08;19.40;;;4.15;;
22650;SDS011;11492;42.646;23.400;2023-07-29T08:01:37;8.77;;;3.78;;
22650;SDS011;11492;42.646;23.400;2023-07-29T08:04:03;6.47;;;3.90;;
22650;SDS011;11492;42.646;23.400;2023-07-29T08:06:29;10.90;;;3.65;;
22650;SDS011;11492;42.646;23.400;2023-07-29T08:08:55;10.35;;;4.18;;
22650;SDS011;11492;42.646;23.400;2023-07-29T08:11:21;11.10;;;3.90;;
22650;SDS011;11492;42.646;23.400;2023-07-29T08:13:46;10.27;;;3.60;;
22650;SDS011;11492;42.646;23.400;2023-07-29T08:16:12;13.10;;;3.30;;
22650;SDS011;11492;42.646;23.400;2023-07-29T08:18:38;8.05;;;3.60;;
22650;SDS011;11492;42.646;23.400;2023-07-29T08:21:03;7.78;;;3.17;;
22650;SDS011;11492;42.646;23.400;2023-07-29T08:23:30;7.57;;;3.10;;
22650;SDS011;11492;42.646;23.400;2023-07-29T08:25:57;9.63;;;3.03;;
22650;SDS011;11492;42.646;23.400;2023-07-29T08:28:33;12.63;;;3.22;;
22650;SDS011;11492;42.646;23.400;2023-07-29T08:31:03;8.93;;;3.50;;
22650;SDS011;11492;42.646;23.400;2023-07-29T08:33:29;11.57;;;2.88;;
22650;SDS011;11492;42.646;23.400;2023-07-29T08:35:55;12.57;;;3.00;;
22650;SDS011;11492;42.646;23.400;2023-07-29T08:38:21;9.45;;;2.70;;
22650;SDS011;11492;42.646;23.400;2023-07-29T08:40:52;4.88;;;2.65;;
22650;SDS011;11492;42.646;23.400;2023-07-29T08:43:25;7.25;;;2.60;;
22650;SDS011;11492;42.646;23.400;2023-07-29T08:45:57;5.28;;;2.47;;
22650;SDS011;11492;42.646;23.400;2023-07-29T08:48:26;7.25;;;3.03;;
22650;SDS011;11492;42.646;23.400;2023-07-29T08:50:57;6.38;;;2.50;;
22650;SDS011;11492;42.646;23.400;2023-07-29T08:53:26;3.03;;;2.17;;
22650;SDS011;11492;42.646;23.400;2023-07-29T08:55:52;6.85;;;2.75;;
22650;SDS011;11492;42.646;23.400;2023-07-29T08:58:20;5.43;;;2.53;;
22650;SDS011;11492;42.646;23.400;2023-07-29T09:00:47;5.78;;;2.40;;
22650;SDS011;11492;42.646;23.400;2023-07-29T09:03:13;5.72;;;2.20;;
22650;SDS011;11492;42.646;23.400;2023-07-29T09:05:39;6.20;;;2.10;;
22650;SDS011;11492;42.646;23.400;2023-07-29T09:08:04;6.03;;;1.90;;
22650;SDS011;11492;42.646;23.400;2023-07-29T09:10:30;8.73;;;2.10;;
22650;SDS011;11492;42.646;23.400;2023-07-29T09:13:00;4.10;;;1.95;;
22650;SDS011;11492;42.646;23.400;2023-07-29T09:15:32;3.40;;;1.77;;
22650;SDS011;11492;42.646;23.400;2023-07-29T09:17:59;4.75;;;1.80;;
22650;SDS011;11492;42.646;23.400;2023-07-29T09:20:33;3.17;;;1.73;;
22650;SDS011;11492;42.646;23.400;2023-07-29T09:22:59;2.60;;;1.73;;
22650;SDS011;11492;42.646;23.400;2023-07-29T09:25:28;5.57;;;1.90;;
22650;SDS011;11492;42.646;23.400;2023-07-29T09:28:01;4.32;;;1.70;;
22650;SDS011;11492;42.646;23.400;2023-07-29T09:30:32;10.25;;;2.05;;
22650;SDS011;11492;42.646;23.400;2023-07-29T09:32:58;5.90;;;2.25;;
22650;SDS011;11492;42.646;23.400;2023-07-29T09:35:24;3.78;;;1.90;;
22650;SDS011;11492;42.646;23.400;2023-07-29T09:37:52;3.00;;;1.60;;
22650;SDS011;11492;42.646;23.400;2023-07-29T09:40:18;4.65;;;1.40;;
22650;SDS011;11492;42.646;23.400;2023-07-29T09:42:48;2.35;;;1.80;;
22650;SDS011;11492;42.646;23.400;2023-07-29T09:45:25;5.22;;;1.40;;
22650;SDS011;11492;42.646;23.400;2023-07-29T09:47:52;4.30;;;1.50;;
22650;SDS011;11492;42.646;23.400;2023-07-29T09:50:18;6.78;;;1.55;;
22650;SDS011;11492;42.646;23.400;2023-07-29T09:52:44;2.45;;;1.30;;
22650;SDS011;11492;42.646;23.400;2023-07-29T09:55:11;4.22;;;1.50;;
22650;SDS011;11492;42.646;23.400;2023-07-29T09:57:37;3.00;;;1.20;;
22650;SDS011;11492;42.646;23.400;2023-07-29T10:00:04;8.75;;;1.55;;
22650;SDS011;11492;42.646;23.400;2023-07-29T10:02:35;3.03;;;1.23;;
22650;SDS011;11492;42.646;23.400;2023-07-29T10:05:08;3.47;;;1.23;;
22650;SDS011;11492;42.646;23.400;2023-07-29T10:07:38;5.53;;;1.88;;
22650;SDS011;11492;42.646;23.400;2023-07-29T10:10:05;6.15;;;1.65;;
22650;SDS011;11492;42.646;23.400;2023-07-29T10:12:31;2.92;;;1.40;;
22650;SDS011;11492;42.646;23.400;2023-07-29T10:15:06;9.75;;;1.45;;
22650;SDS011;11492;42.646;23.400;2023-07-29T10:17:33;5.55;;;1.55;;
22650;SDS011;11492;42.646;23.400;2023-07-29T10:20:01;5.82;;;1.50;;
22650;SDS011;11492;42.646;23.400;2023-07-29T10:22:29;2.95;;;1.40;;
22650;SDS011;11492;42.646;23.400;2023-07-29T10:25:01;2.38;;;1.42;;
22650;SDS011;11492;42.646;23.400;2023-07-29T10:27:29;2.20;;;1.25;;
22650;SDS011;11492;42.646;23.400;2023-07-29T10:29:58;2.72;;;1.52;;
22650;SDS011;11492;42.646;23.400;2023-07-29T10:32:25;4.38;;;1.40;;
22650;SDS011;11492;42.646;23.400;2023-07-29T10:34:51;2.50;;;1.60;;
22650;SDS011;11492;42.646;23.400;2023-07-29T10:37:17;2.92;;;1.33;;
22650;SDS011;11492;42.646;23.400;2023-07-29T10:39:51;4.82;;;1.33;;
22650;SDS011;11492;42.646;23.400;2023-07-29T10:42:20;6.22;;;1.20;;
22650;SDS011;11492;42.646;23.400;2023-07-29T10:47:26;3.78;;;1.10;;
22650;SDS011;11492;42.646;23.400;2023-07-29T10:49:56;3.60;;;1.23;;
22650;SDS011;11492;42.646;23.400;2023-07-29T10:54:56;3.35;;;1.23;;
22650;SDS011;11492;42.646;23.400;2023-07-29T10:57:32;6.18;;;1.20;;
22650;SDS011;11492;42.646;23.400;2023-07-29T10:59:58;1.55;;;1.25;;
22650;SDS011;11492;42.646;23.400;2023-07-29T11:02:31;5.20;;;1.10;;
22650;SDS011;11492;42.646;23.400;2023-07-29T11:04:58;1.92;;;1.10;;
22650;SDS011;11492;42.646;23.400;2023-07-29T11:07:25;4.00;;;1.17;;
22650;SDS011;11492;42.646;23.400;2023-07-29T11:09:53;1.30;;;0.98;;
22650;SDS011;11492;42.646;23.400;2023-07-29T11:15:17;3.13;;;1.15;;
22650;SDS011;11492;42.646;23.400;2023-07-29T11:17:54;3.25;;;0.95;;
22650;SDS011;11492;42.646;23.400;2023-07-29T11:20:25;7.47;;;1.08;;
22650;SDS011;11492;42.646;23.400;2023-07-29T11:22:52;2.90;;;1.10;;
22650;SDS011;11492;42.646;23.400;2023-07-29T11:25:19;2.67;;;0.90;;
22650;SDS011;11492;42.646;23.400;2023-07-29T11:27:46;1.45;;;1.00;;
22650;SDS011;11492;42.646;23.400;2023-07-29T11:30:12;4.43;;;4.00;;
22650;SDS011;11492;42.646;23.400;2023-07-29T11:32:40;2.60;;;1.10;;
22650;SDS011;11492;42.646;23.400;2023-07-29T11:35:10;3.28;;;0.90;;
22650;SDS011;11492;42.646;23.400;2023-07-29T11:37:40;1.77;;;0.90;;
22650;SDS011;11492;42.646;23.400;2023-07-29T11:40:07;3.17;;;1.08;;
22650;SDS011;11492;42.646;23.400;2023-07-29T11:42:35;1.13;;;0.82;;
22650;SDS011;11492;42.646;23.400;2023-07-29T11:45:04;2.63;;;1.00;;
22650;SDS011;11492;42.646;23.400;2023-07-29T11:47:31;1.80;;;1.08;;
22650;SDS011;11492;42.646;23.400;2023-07-29T11:50:01;1.00;;;0.80;;
22650;SDS011;11492;42.646;23.400;2023-07-29T11:52:27;7.07;;;1.10;;
22650;SDS011;11492;42.646;23.400;2023-07-29T11:54:53;1.20;;;0.90;;
22650;SDS011;11492;42.646;23.400;2023-07-29T11:57:19;2.30;;;0.95;;
22650;SDS011;11492;42.646;23.400;2023-07-29T11:59:46;1.77;;;1.00;;
22650;SDS011;11492;42.646;23.400;2023-07-29T12:02:15;2.53;;;1.25;;
22650;SDS011;11492;42.646;23.400;2023-07-29T12:04:43;2.40;;;1.20;;
22650;SDS011;11492;42.646;23.400;2023-07-29T12:07:09;2.22;;;1.33;;
22650;SDS011;11492;42.646;23.400;2023-07-29T12:09:36;2.58;;;1.23;;
22650;SDS011;11492;42.646;23.400;2023-07-29T12:12:03;4.78;;;1.40;;
22650;SDS011;11492;42.646;23.400;2023-07-29T12:14:29;2.60;;;1.35;;
22650;SDS011;11492;42.646;23.400;2023-07-29T12:16:54;1.92;;;1.20;;
22650;SDS011;11492;42.646;23.400;2023-07-29T12:19:20;4.60;;;1.40;;
22650;SDS011;11492;42.646;23.400;2023-07-29T12:21:47;1.67;;;1.10;;
22650;SDS011;11492;42.646;23.400;2023-07-29T12:24:12;2.75;;;1.10;;
22650;SDS011;11492;42.646;23.400;2023-07-29T12:26:39;2.30;;;1.00;;
22650;SDS011;11492;42.646;23.400;2023-07-29T12:29:14;1.80;;;1.10;;
22650;SDS011;11492;42.646;23.400;2023-07-29T12:31:41;5.53;;;1.20;;
22650;SDS011;11492;42.646;23.400;2023-07-29T12:34:07;2.13;;;1.00;;
22650;SDS011;11492;42.646;23.400;2023-07-29T12:36:43;3.53;;;1.20;;
22650;SDS011;11492;42.646;23.400;2023-07-29T12:39:19;4.72;;;1.48;;
22650;SDS011;11492;42.646;23.400;2023-07-29T12:41:50;1.35;;;1.20;;
22650;SDS011;11492;42.646;23.400;2023-07-29T12:44:17;3.22;;;1.23;;
22650;SDS011;11492;42.646;23.400;2023-07-29T12:46:43;6.90;;;1.50;;
22650;SDS011;11492;42.646;23.400;2023-07-29T12:49:09;22.45;;;2.05;;
22650;SDS011;11492;42.646;23.400;2023-07-29T12:51:35;9.85;;;1.67;;
22650;SDS011;11492;42.646;23.400;2023-07-29T12:54:01;1.58;;;1.20;;
22650;SDS011;11492;42.646;23.400;2023-07-29T12:56:28;6.57;;;1.60;;
22650;SDS011;11492;42.646;23.400;2023-07-29T12:58:53;2.30;;;1.38;;
22650;SDS011;11492;42.646;23.400;2023-07-29T13:01:19;6.68;;;1.58;;
22650;SDS011;11492;42.646;23.400;2023-07-29T13:03:44;1.50;;;1.40;;
22650;SDS011;11492;42.646;23.400;2023-07-29T13:06:10;4.45;;;1.38;;
22650;SDS011;11492;42.646;23.400;2023-07-29T13:08:36;4.30;;;1.50;;
22650;SDS011;11492;42.646;23.400;2023-07-29T13:11:02;2.47;;;1.35;;
22650;SDS011;11492;42.646;23.400;2023-07-29T13:13:28;2.58;;;1.40;;
22650;SDS011;11492;42.646;23.400;2023-07-29T13:15:53;4.47;;;1.08;;
22650;SDS011;11492;42.646;23.400;2023-07-29T13:18:19;2.05;;;1.30;;
22650;SDS011;11492;42.646;23.400;2023-07-29T13:20:44;2.92;;;1.70;;
22650;SDS011;11492;42.646;23.400;2023-07-29T13:23:10;4.18;;;1.55;;
22650;SDS011;11492;42.646;23.400;2023-07-29T13:25:35;2.28;;;1.42;;
22650;SDS011;11492;42.646;23.400;2023-07-29T13:28:00;1.60;;;1.40;;
22650;SDS011;11492;42.646;23.400;2023-07-29T13:30:26;2.38;;;1.50;;
22650;SDS011;11492;42.646;23.400;2023-07-29T13:32:51;2.35;;;1.70;;
22650;SDS011;11492;42.646;23.400;2023-07-29T13:35:17;2.03;;;1.45;;
22650;SDS011;11492;42.646;23.400;2023-07-29T13:37:42;4.25;;;1.50;;
22650;SDS011;11492;42.646;23.400;2023-07-29T13:40:07;4.38;;;1.63;;
22650;SDS011;11492;42.646;23.400;2023-07-29T13:42:33;1.95;;;1.50;;
22650;SDS011;11492;42.646;23.400;2023-07-29T13:44:58;4.00;;;1.40;;
22650;SDS011;11492;42.646;23.400;2023-07-29T13:47:24;2.95;;;1.50;;
22650;SDS011;11492;42.646;23.400;2023-07-29T13:49:49;1.52;;;1.42;;
22650;SDS011;11492;42.646;23.400;2023-07-29T13:52:14;7.75;;;2.00;;
22650;SDS011;11492;42.646;23.400;2023-07-29T13:54:40;1.98;;;1.63;;
22650;SDS011;11492;42.646;23.400;2023-07-29T13:57:05;4.20;;;1.60;;
22650;SDS011;11492;42.646;23.400;2023-07-29T13:59:31;2.60;;;1.70;;
22650;SDS011;11492;42.646;23.400;2023-07-29T14:01:57;5.63;;;1.65;;
22650;SDS011;11492;42.646;23.400;2023-07-29T14:04:23;3.45;;;1.75;;
22650;SDS011;11492;42.646;23.400;2023-07-29T14:06:48;2.13;;;1.30;;
22650;SDS011;11492;42.646;23.400;2023-07-29T14:09:14;3.80;;;1.52;;
22650;SDS011;11492;42.646;23.400;2023-07-29T14:11:39;4.45;;;1.60;;
22650;SDS011;11492;42.646;23.400;2023-07-29T14:14:05;3.03;;;1.40;;
22650;SDS011;11492;42.646;23.400;2023-07-29T14:16:30;2.38;;;1.52;;
22650;SDS011;11492;42.646;23.400;2023-07-29T14:18:55;2.85;;;1.50;;
22650;SDS011;11492;42.646;23.400;2023-07-29T14:21:21;2.00;;;1.50;;
22650;SDS011;11492;42.646;23.400;2023-07-29T14:23:46;5.45;;;1.75;;
22650;SDS011;11492;42.646;23.400;2023-07-29T14:26:12;2.30;;;1.60;;
22650;SDS011;11492;42.646;23.400;2023-07-29T14:28:37;6.57;;;1.50;;
22650;SDS011;11492;42.646;23.400;2023-07-29T14:31:02;1.92;;;1.50;;
22650;SDS011;11492;42.646;23.400;2023-07-29T14:33:28;3.70;;;1.60;;
22650;SDS011;11492;42.646;23.400;2023-07-29T14:35:53;3.40;;;1.50;;
22650;SDS011;11492;42.646;23.400;2023-07-29T14:38:19;1.83;;;1.42;;
22650;SDS011;11492;42.646;23.400;2023-07-29T14:40:47;2.80;;;1.80;;
22650;SDS011;11492;42.646;23.400;2023-07-29T14:43:12;2.40;;;1.70;;